Decoded Metar for MMTG (TUXTLA GUTIERREZ in MEXICO) (IATA:TGZ) | Meteo·Mobile Aviation Weather
aviador You're here:

MMTG Decoded Metar

TUXTLA GUTIERREZ in MEXICO
Report Time2018-09-22 18:48:00
UTC Time2018-09-22 19:08:56
Flight Rules vfr VFR
Wind120° at 05 kt
W.Decomp.*RWY 14: 4.6 kt HW 2 kt LCW
W.Rank120° ranks 10
Current wind is below 120° avg. (5.1)
Visibility9999 m
Phenomena:N/A
Clouds:Few 025 Hf
Scattered 300 Hf
Expected CloudBase > 4,000 ft AGL from Temp-Dew spread
CeilingNone
Temp31°C (ISA +19)
Dew Point21°C (55% RH)
Heat Index33.7°C
QNH1012 hPa
Density Alt4,318 ft
Elevation1,732 ft
Report Wrong Elevation
Raw Report
METAR MMTG 221848Z 12005KT 8SM FEW025 SCT300 31/21 A2989 RMK 8/102=

Extra information for MMTG:More info

Metar Taf Metar & Taf Last 4 Metars F.Rules Stats Wind Profile Meteogram Temp Stats Airport Information Weather charts Add Link Nearby VenuesMetar ALERT Operation Metar Decoded Social comments